createdAt,value
2019-05-28T00:03:05.098Z,9.57
2019-05-28T00:08:08.770Z,14.13
2019-05-28T00:13:19.106Z,8.37
2019-05-28T00:18:20.509Z,8.10
2019-05-28T00:23:21.942Z,7.60
2019-05-28T00:28:26.744Z,16.30
2019-05-28T00:34:02.135Z,11.53
2019-05-28T00:39:19.029Z,9.67
2019-05-28T00:44:26.393Z,15.63
2019-05-28T00:49:34.103Z,8.10
2019-05-28T00:54:49.688Z,13.03
2019-05-28T00:59:53.737Z,14.00
2019-05-28T01:04:58.299Z,12.77
2019-05-28T01:10:08.033Z,20.07
2019-05-28T01:15:13.080Z,9.30
2019-05-28T01:20:17.777Z,10.73
2019-05-28T01:25:24.882Z,17.83
2019-05-28T01:30:29.345Z,10.90
2019-05-28T01:35:55.539Z,14.07
2019-05-28T01:41:26.908Z,11.20
2019-05-28T01:46:28.465Z,13.00
2019-05-28T01:51:29.829Z,15.90
2019-05-28T01:56:50.239Z,11.17
2019-05-28T02:02:00.743Z,13.93
2019-05-28T02:07:14.184Z,11.43
2019-05-28T02:12:16.581Z,21.60
2019-05-28T02:17:18.100Z,13.50
2019-05-28T02:22:25.223Z,17.77
2019-05-28T02:27:54.607Z,17.57
2019-05-28T02:32:59.044Z,16.33
2019-05-28T02:38:00.431Z,22.97
2019-05-28T02:43:05.002Z,21.67
2019-05-28T02:48:09.569Z,15.03
2019-05-28T02:53:21.567Z,17.50
2019-05-28T02:58:31.305Z,19.73
2019-05-28T03:03:47.124Z,17.13
2019-05-28T03:09:05.258Z,24.90
2019-05-28T03:14:06.572Z,24.23
2019-05-28T03:19:09.487Z,18.87
2019-05-28T03:24:17.802Z,23.57
2019-05-28T03:29:36.956Z,21.20
2019-05-28T03:34:42.344Z,22.70
2019-05-28T03:39:58.834Z,20.23
2019-05-28T03:45:07.067Z,24.20
2019-05-28T03:50:08.733Z,20.67
2019-05-28T03:55:10.171Z,23.57
2019-05-28T04:00:14.900Z,20.10
2019-05-28T04:05:38.135Z,26.97
2019-05-28T04:10:42.713Z,22.73
2019-05-28T04:15:59.255Z,18.93
2019-05-28T04:21:03.765Z,19.27
2019-05-28T04:26:19.374Z,24.13
2019-05-28T04:31:20.945Z,21.03
2019-05-28T04:36:22.263Z,20.37
2019-05-28T04:41:23.641Z,19.07
2019-05-28T04:46:31.097Z,19.13
2019-05-28T04:51:38.209Z,21.27
2019-05-28T04:57:06.433Z,28.67
2019-05-28T05:02:36.785Z,22.40
2019-05-28T05:07:40.254Z,22.70
2019-05-28T05:13:01.839Z,27.70
2019-05-28T05:18:03.357Z,17.50
2019-05-28T05:23:08.059Z,27.33
2019-05-28T05:28:12.842Z,22.63
2019-05-28T05:33:20.711Z,23.20
2019-05-28T05:38:25.663Z,31.90
2019-05-28T05:43:33.003Z,23.47
2019-05-28T05:48:58.216Z,35.00
2019-05-28T05:54:12.737Z,28.73
2019-05-28T05:59:15.293Z,23.53
2019-05-28T06:04:19.890Z,17.57
2019-05-28T06:09:26.995Z,21.53
2019-05-28T06:14:28.519Z,19.63
2019-05-28T06:19:36.128Z,16.33
2019-05-28T06:24:40.668Z,20.23
2019-05-28T06:29:43.069Z,22.77
2019-05-28T06:34:56.011Z,24.50
2019-05-28T06:39:57.504Z,19.13
2019-05-28T06:45:05.474Z,17.70
2019-05-28T06:50:09.621Z,21.23
2019-05-28T06:55:14.590Z,23.63
2019-05-28T07:00:20.526Z,27.73
2019-05-28T07:05:22.049Z,24.00
2019-05-28T07:10:36.669Z,19.00
2019-05-28T07:15:46.088Z,6.70
2019-05-28T07:20:47.374Z,15.63
2019-05-28T07:25:48.725Z,6.63
2019-05-28T07:30:55.747Z,12.73
2019-05-28T07:36:03.311Z,5.77
2019-05-28T07:41:07.893Z,8.10
2019-05-28T07:46:18.252Z,10.90
2019-05-28T07:51:19.743Z,6.40
2019-05-28T07:56:24.270Z,5.97
2019-05-28T08:01:25.763Z,5.30
2019-05-28T08:06:27.228Z,4.97
2019-05-28T08:11:31.381Z,6.70
2019-05-28T08:16:51.962Z,8.20
2019-05-28T08:21:42.133Z,6.10
2019-05-28T08:26:46.818Z,5.07
2019-05-28T08:32:10.799Z,4.77
2019-05-28T08:37:15.456Z,8.37
2019-05-28T08:42:20.796Z,6.27
2019-05-28T08:47:22.396Z,3.10
2019-05-28T08:52:27.174Z,4.50
2019-05-28T08:57:29.859Z,3.50
2019-05-28T09:02:31.410Z,4.80
2019-05-28T09:07:40.576Z,7.43
2019-05-28T09:12:42.074Z,3.90
2019-05-28T09:17:43.523Z,1.80
2019-05-28T09:22:54.009Z,2.40
2019-05-28T09:27:55.360Z,2.67
2019-05-28T09:32:56.944Z,2.00
2019-05-28T09:37:58.332Z,1.87
2019-05-28T09:43:14.837Z,3.43
2019-05-28T09:48:42.616Z,4.73
2019-05-28T09:53:45.258Z,3.03
2019-05-28T09:58:52.348Z,2.60
2019-05-28T10:03:56.958Z,2.07
2019-05-28T10:09:10.819Z,2.53
2019-05-28T10:14:18.076Z,3.33
2019-05-28T10:19:23.663Z,1.40
2019-05-28T10:24:25.201Z,3.87
2019-05-28T10:29:30.107Z,1.37
2019-05-28T10:34:34.580Z,1.87
2019-05-28T10:39:39.132Z,2.60
2019-05-28T10:44:44.839Z,1.50
2019-05-28T10:49:58.947Z,1.40
2019-05-28T10:55:02.750Z,1.10
2019-05-28T11:00:12.280Z,1.73
2019-05-28T11:05:16.018Z,3.60
2019-05-28T11:10:24.117Z,1.70
2019-05-28T11:15:24.958Z,2.13
2019-05-28T11:20:27.468Z,1.60
2019-05-28T12:22:23.383Z,1.10
2019-05-28T12:27:33.829Z,0.70
2019-05-28T12:32:38.718Z,1.63
2019-05-28T12:37:48.801Z,2.17
2019-05-28T12:42:50.194Z,2.00
2019-05-28T12:48:09.411Z,5.73
2019-05-28T12:53:22.810Z,3.57
2019-05-28T12:58:41.857Z,2.70
2019-05-28T13:03:30.842Z,5.80
2019-05-28T13:08:54.188Z,5.60
2019-05-28T13:14:17.423Z,4.67
2019-05-28T13:19:24.869Z,4.60
2019-05-28T13:24:26.325Z,5.17
2019-05-28T13:29:58.703Z,3.87
2019-05-28T13:35:07.385Z,4.83
2019-05-28T13:40:16.225Z,3.50
2019-05-28T13:45:21.264Z,3.60
2019-05-28T13:50:26.118Z,3.20
2019-05-28T13:56:09.186Z,3.20
2019-05-28T14:01:10.477Z,2.30
2019-05-28T15:48:42.051Z,4.20
2019-05-28T15:53:49.401Z,3.57
2019-05-28T15:58:54.247Z,0.80
2019-05-28T16:03:56.109Z,0.97
2019-05-28T16:09:06.492Z,1.23
2019-05-28T16:14:17.009Z,2.20
2019-05-28T16:19:18.398Z,1.27
2019-05-28T16:24:35.650Z,3.03
2019-05-28T16:29:40.313Z,2.40
2019-05-28T16:34:41.694Z,4.30
2019-05-28T16:39:50.102Z,4.50
2019-05-28T16:44:51.561Z,3.57
2019-05-28T16:49:53.055Z,3.93
2019-05-28T16:54:54.497Z,5.33
2019-05-28T17:00:05.130Z,4.97
2019-05-28T17:05:10.338Z,5.00
2019-05-28T17:10:32.884Z,5.70
2019-05-28T17:15:30.056Z,11.87
2019-05-28T17:20:39.373Z,7.93
2019-05-28T17:25:41.013Z,7.83
2019-05-28T17:30:48.420Z,10.37
2019-05-28T17:35:50.832Z,9.83
2019-05-28T17:40:52.276Z,8.07
2019-05-28T17:46:06.239Z,10.37
2019-05-28T17:51:15.503Z,8.50
2019-05-28T17:56:20.025Z,7.17
2019-05-28T18:01:22.449Z,5.80
2019-05-28T18:06:26.972Z,7.50
2019-05-28T18:11:31.547Z,6.20
2019-05-28T18:17:01.027Z,9.20
2019-05-28T18:22:14.416Z,10.17
2019-05-28T18:27:15.721Z,12.13
2019-05-28T18:32:20.428Z,11.63
2019-05-28T18:37:24.939Z,14.60
2019-05-28T18:42:26.442Z,14.73
2019-05-28T18:47:31.724Z,15.80
2019-05-28T18:52:38.959Z,14.30
2019-05-28T18:57:40.318Z,15.90
2019-05-28T19:02:41.857Z,15.57
2019-05-28T19:07:51.329Z,20.27
2019-05-28T19:12:53.717Z,19.07
2019-05-28T19:17:58.298Z,13.80
2019-05-28T19:23:05.551Z,14.70
2019-05-28T19:28:10.111Z,17.17
2019-05-28T19:33:27.284Z,14.93
2019-05-28T19:38:44.616Z,17.23
2019-05-28T19:43:58.050Z,12.87
2019-05-28T19:49:05.616Z,16.50
2019-05-28T19:54:24.403Z,19.07
2019-05-28T19:59:25.857Z,16.87
2019-05-28T20:04:28.337Z,19.17
2019-05-28T20:09:33.171Z,17.30
2019-05-28T20:14:34.469Z,17.33
2019-05-28T20:19:35.801Z,18.53
2019-05-28T20:24:37.196Z,22.90
2019-05-28T20:29:40.507Z,19.47
2019-05-28T20:35:07.682Z,18.07
2019-05-28T20:40:10.427Z,22.53
2019-05-28T20:45:29.253Z,20.43
2019-05-28T20:50:34.329Z,21.83
2019-05-28T20:55:49.999Z,26.57
2019-05-28T21:00:52.789Z,26.40
2019-05-28T21:05:54.942Z,32.87
2019-05-28T21:11:08.953Z,32.27
2019-05-28T21:16:42.680Z,29.17
2019-05-28T21:21:47.357Z,41.83
2019-05-28T21:26:52.077Z,28.37
2019-05-28T21:31:56.643Z,34.87
2019-05-28T21:37:05.009Z,36.43
2019-05-28T21:42:07.630Z,36.33
2019-05-28T21:47:28.347Z,41.73
2019-05-28T21:52:33.021Z,38.80
2019-05-28T21:57:40.120Z,44.93
2019-05-28T22:02:47.433Z,45.07
2019-05-28T22:07:50.965Z,45.07
2019-05-28T22:13:16.404Z,43.70
2019-05-28T22:18:04.748Z,43.23
2019-05-28T22:23:20.243Z,39.10
2019-05-28T22:28:31.003Z,34.13
2019-05-28T22:34:14.789Z,37.17
2019-05-28T22:39:16.255Z,39.30
2019-05-28T22:44:17.799Z,39.20
2019-05-28T22:49:25.185Z,39.53
2019-05-28T22:54:29.877Z,39.43
2019-05-28T22:59:36.500Z,39.73
2019-05-28T23:04:58.906Z,36.83
2019-05-28T23:10:11.598Z,35.67
2019-05-28T23:15:16.571Z,35.43
2019-05-28T23:20:21.124Z,38.53
2019-05-28T23:25:44.086Z,29.93
2019-05-28T23:31:07.942Z,26.57
2019-05-28T23:36:15.156Z,25.73
2019-05-28T23:41:26.929Z,19.57
2019-05-28T23:46:28.360Z,22.27
2019-05-28T23:51:30.763Z,19.17
2019-05-28T23:56:35.906Z,18.77
